Time;durP1;ratioP1;P1;durP2;ratioP2;P2;SDS_P1;SDS_P2;PMS_P1;PMS_P2;Temp;Humidity;BMP_temperature;BMP_pressure;BME280_temperature;BME280_humidity;BME280_pressure;Samples;Min_cycle;Max_cycle;Signal;HPM_P1;HPM_P2
2023/02/20 00:02:01;;;;;;;7.60;4.60;;;5.40;99.90;;;;;;5048984;28;20060;-77
2023/02/20 00:04:27;;;;;;;8.57;4.65;;;5.30;99.90;;;;;;5016086;28;20042;-77
2023/02/20 00:06:54;;;;;;;8.20;4.35;;;5.40;99.90;;;;;;5032282;28;20612;-77
2023/02/20 00:09:21;;;;;;;10.63;4.63;;;5.40;99.90;;;;;;5066924;28;20405;-77
2023/02/20 00:11:47;;;;;;;7.38;4.03;;;5.50;99.90;;;;;;5085014;28;20041;-78
2023/02/20 00:14:14;;;;;;;11.10;4.75;;;5.40;99.90;;;;;;5052258;28;20037;-78
2023/02/20 00:16:41;;;;;;;8.98;4.47;;;5.60;99.90;;;;;;5068674;28;20037;-77
2023/02/20 00:19:07;;;;;;;9.35;5.45;;;5.40;99.90;;;;;;5079199;28;20057;-77
2023/02/20 00:21:34;;;;;;;6.85;4.00;;;5.40;99.90;;;;;;5073685;28;20062;-78
2023/02/20 00:24:01;;;;;;;7.75;4.18;;;5.40;99.90;;;;;;5059501;28;20048;-77
2023/02/20 00:26:27;;;;;;;8.52;4.72;;;5.50;99.90;;;;;;5059376;28;20047;-77
2023/02/20 00:28:54;;;;;;;10.13;5.00;;;5.60;99.90;;;;;;5064165;28;20040;-78
2023/02/20 00:31:21;;;;;;;11.20;4.75;;;5.50;99.90;;;;;;5087257;28;20055;-78
2023/02/20 00:33:47;;;;;;;8.18;4.65;;;5.50;99.90;;;;;;5078776;28;20054;-77
2023/02/20 00:36:17;;;;;;;9.98;4.95;;;5.50;99.90;;;;;;5079139;28;20128;-78
2023/02/20 00:38:45;;;;;;;8.98;4.78;;;5.60;99.90;;;;;;5109228;28;20040;-78
2023/02/20 00:41:16;;;;;;;11.30;5.47;;;5.60;99.90;;;;;;5076072;28;20033;-77
2023/02/20 00:43:43;;;;;;;11.27;5.45;;;5.60;99.90;;;;;;5091938;28;20037;-78
2023/02/20 00:46:13;;;;;;;9.07;5.13;;;5.70;99.90;;;;;;5075768;28;20572;-78
2023/02/20 00:48:40;;;;;;;10.35;5.75;;;5.70;99.90;;;;;;5075101;28;20040;-78
2023/02/20 00:51:07;;;;;;;9.55;5.05;;;5.70;99.90;;;;;;5099169;28;20037;-77
2023/02/20 00:53:33;;;;;;;9.48;5.75;;;5.80;99.90;;;;;;5058670;28;20033;-77
2023/02/20 00:56:00;;;;;;;9.35;5.13;;;5.80;99.90;;;;;;5075239;28;20036;-77
2023/02/20 00:58:27;;;;;;;13.55;5.28;;;5.80;99.90;;;;;;5042516;28;20123;-77
2023/02/20 01:00:53;;;;;;;10.90;5.65;;;5.80;99.90;;;;;;5071331;28;20484;-77
2023/02/20 01:03:20;;;;;;;10.25;5.75;;;5.80;99.90;;;;;;5095384;28;20040;-77
2023/02/20 01:05:47;;;;;;;9.10;5.22;;;5.80;99.90;;;;;;5095024;28;20083;-77
2023/02/20 01:08:13;;;;;;;10.50;5.72;;;5.90;99.90;;;;;;5078535;28;20036;-77
2023/02/20 01:10:40;;;;;;;11.77;6.22;;;5.90;99.90;;;;;;5084838;28;20102;-77
2023/02/20 01:13:07;;;;;;;11.25;6.28;;;5.90;99.90;;;;;;5091267;28;20041;-77
2023/02/20 01:15:33;;;;;;;11.60;6.57;;;5.90;99.90;;;;;;5074940;28;20698;-77
2023/02/20 01:18:00;;;;;;;13.38;6.70;;;6.00;99.90;;;;;;5058244;28;20048;-77
2023/02/20 01:20:27;;;;;;;14.90;7.43;;;6.00;99.90;;;;;;5080406;28;20032;-77
2023/02/20 01:22:53;;;;;;;11.05;7.05;;;6.00;99.90;;;;;;5111407;28;20052;-77
2023/02/20 01:25:20;;;;;;;13.75;7.30;;;6.00;99.90;;;;;;5063499;28;20047;-77
2023/02/20 01:27:47;;;;;;;10.98;6.88;;;6.00;99.90;;;;;;5057810;28;20094;-77
2023/02/20 01:30:14;;;;;;;12.55;7.15;;;6.00;99.90;;;;;;5075316;28;20062;-77
2023/02/20 01:32:40;;;;;;;14.30;8.30;;;6.10;99.90;;;;;;5074296;28;20127;-77
2023/02/20 01:35:07;;;;;;;11.80;7.55;;;6.00;99.90;;;;;;5091358;28;20040;-77
2023/02/20 01:37:34;;;;;;;15.52;8.68;;;6.10;99.90;;;;;;5074881;28;20094;-77
2023/02/20 01:40:02;;;;;;;14.27;8.00;;;6.10;99.90;;;;;;5074591;28;20041;-77
2023/02/20 01:42:31;;;;;;;12.77;7.40;;;6.10;99.90;;;;;;5107286;28;20412;-77
2023/02/20 01:45:26;;;;;;;13.55;7.75;;;6.10;99.90;;;;;;5111030;28;20412;-78
2023/02/20 01:47:55;;;;;;;13.68;8.07;;;6.10;99.90;;;;;;5110958;28;20101;-77
2023/02/20 01:50:27;;;;;;;11.98;7.78;;;6.20;99.90;;;;;;5111211;28;20539;-77
2023/02/20 01:52:57;;;;;;;17.02;7.95;;;6.20;99.90;;;;;;5079080;28;20041;-77
2023/02/20 01:55:56;;;;;;;13.73;7.53;;;6.20;99.90;;;;;;5074262;28;20066;-77
2023/02/20 01:58:28;;;;;;;14.35;7.50;;;6.20;99.90;;;;;;5073984;28;20040;-77
2023/02/20 02:00:58;;;;;;;13.73;7.95;;;6.20;99.90;;;;;;5090513;28;20040;-77
2023/02/20 02:03:31;;;;;;;12.75;7.28;;;6.30;99.90;;;;;;5092284;28;20066;-77
2023/02/20 02:06:02;;;;;;;15.57;7.60;;;6.20;99.90;;;;;;5090412;28;20052;-77
2023/02/20 02:08:29;;;;;;;10.85;7.03;;;6.30;99.90;;;;;;5073695;28;20041;-77
2023/02/20 02:11:20;;;;;;;11.55;7.10;;;6.30;99.90;;;;;;5073502;28;20044;-77
2023/02/20 02:13:47;;;;;;;12.00;6.47;;;6.30;99.90;;;;;;5090456;28;20050;-77
2023/02/20 02:16:32;;;;;;;11.45;6.57;;;6.40;99.90;;;;;;5057209;28;20552;-77
2023/02/20 02:19:30;;;;;;;10.57;6.78;;;6.30;99.90;;;;;;5073477;28;20123;-77
2023/02/20 02:22:21;;;;;;;14.63;6.38;;;6.40;99.90;;;;;;5050498;28;20559;-78
2023/02/20 02:25:06;;;;;;;15.27;6.60;;;6.30;99.90;;;;;;5050237;28;20102;-78
2023/02/20 02:28:12;;;;;;;11.77;6.40;;;6.40;99.90;;;;;;5050585;28;20087;-77
2023/02/20 02:30:42;;;;;;;11.65;6.43;;;6.40;99.90;;;;;;5050149;28;20041;-77
2023/02/20 02:33:54;;;;;;;10.63;6.50;;;6.40;99.90;;;;;;5049930;28;20082;-77
2023/02/20 02:36:21;;;;;;;14.13;6.35;;;6.40;99.90;;;;;;5047956;28;20044;-78
2023/02/20 02:39:14;;;;;;;14.20;6.68;;;6.40;99.90;;;;;;5050130;28;20770;-77
2023/02/20 02:42:07;;;;;;;12.95;6.80;;;6.40;99.90;;;;;;5067201;28;20036;-77
2023/02/20 02:45:01;;;;;;;12.02;6.53;;;6.40;99.90;;;;;;5068642;28;20382;-78
2023/02/20 02:47:43;;;;;;;11.27;7.25;;;6.40;99.90;;;;;;5069560;28;20036;-77
2023/02/20 02:50:17;;;;;;;14.63;7.50;;;6.40;99.90;;;;;;5085959;28;20509;-77
2023/02/20 02:52:48;;;;;;;14.05;6.78;;;6.40;99.90;;;;;;5069673;28;20052;-77
2023/02/20 02:55:33;;;;;;;14.15;6.90;;;6.40;99.90;;;;;;5057760;28;20045;-77
2023/02/20 02:58:01;;;;;;;12.20;6.38;;;6.40;99.90;;;;;;5049100;28;20120;-78
2023/02/20 03:00:51;;;;;;;13.32;7.07;;;6.40;99.90;;;;;;5049541;28;20037;-77
2023/02/20 03:03:33;;;;;;;13.68;6.93;;;6.40;99.90;;;;;;5049234;28;20045;-77
2023/02/20 03:06:09;;;;;;;16.67;7.47;;;6.40;99.90;;;;;;5048879;28;20405;-77
2023/02/20 03:08:40;;;;;;;18.20;8.77;;;6.40;99.90;;;;;;5065455;28;20045;-78
2023/02/20 03:11:12;;;;;;;14.25;7.63;;;6.50;99.90;;;;;;5049066;28;20409;-77
2023/02/20 03:16:53;;;;;;;17.55;7.93;;;6.50;99.90;;;;;;5084577;28;20119;-77
2023/02/20 03:19:37;;;;;;;16.27;7.57;;;6.40;99.90;;;;;;5085231;28;20044;-77
2023/02/20 03:22:15;;;;;;;17.88;8.05;;;6.40;99.90;;;;;;5109078;28;20044;-77
2023/02/20 03:24:54;;;;;;;16.83;7.82;;;6.40;99.90;;;;;;5092824;28;20086;-77
2023/02/20 03:27:37;;;;;;;16.17;8.07;;;6.40;99.90;;;;;;5089139;28;20032;-77
2023/02/20 03:30:27;;;;;;;14.68;7.43;;;6.40;99.90;;;;;;5088825;28;20040;-77
2023/02/20 03:44:14;;;;;;;16.90;8.43;;;6.30;99.90;;;;;;5088825;28;20044;-77
2023/02/20 03:46:44;;;;;;;20.40;9.40;;;6.30;99.90;;;;;;5089125;28;20036;-77
2023/02/20 03:49:14;;;;;;;18.58;8.85;;;6.30;99.90;;;;;;5088550;28;20048;-77
2023/02/20 03:51:42;;;;;;;18.17;8.80;;;6.30;99.90;;;;;;5072260;28;20040;-77
2023/02/20 03:54:10;;;;;;;21.10;9.68;;;6.30;99.90;;;;;;5088702;28;20040;-77
2023/02/20 03:56:41;;;;;;;21.83;8.98;;;6.30;99.90;;;;;;5079025;28;20048;-77
2023/02/20 03:59:17;;;;;;;19.77;8.63;;;6.20;99.90;;;;;;5115844;28;20043;-77
2023/02/20 04:01:47;;;;;;;23.15;9.38;;;6.20;99.90;;;;;;5115606;28;20504;-77
2023/02/20 04:04:19;;;;;;;20.08;9.35;;;6.20;99.90;;;;;;5115152;28;20040;-77
2023/02/20 04:06:49;;;;;;;22.80;10.05;;;6.20;99.90;;;;;;5113437;28;20044;-77
2023/02/20 04:09:21;;;;;;;21.58;9.68;;;6.20;99.90;;;;;;5095240;28;20047;-77
2023/02/20 04:11:53;;;;;;;22.95;9.80;;;6.20;99.90;;;;;;5095543;28;20047;-77
2023/02/20 04:14:24;;;;;;;22.10;9.40;;;6.30;99.90;;;;;;5078351;28;20382;-77
2023/02/20 04:16:57;;;;;;;19.35;9.77;;;6.20;99.90;;;;;;5079074;28;20040;-77
2023/02/20 04:19:24;;;;;;;20.90;10.48;;;6.20;99.90;;;;;;5078523;28;20041;-77
2023/02/20 04:21:57;;;;;;;23.17;10.05;;;6.20;99.90;;;;;;5078132;28;20102;-77
2023/02/20 04:24:51;;;;;;;26.67;10.55;;;6.20;99.90;;;;;;5094912;28;20123;-77
2023/02/20 04:27:18;;;;;;;31.58;11.07;;;6.20;99.90;;;;;;5058239;28;20052;-77
2023/02/20 04:29:48;;;;;;;23.95;10.30;;;6.40;99.90;;;;;;5098546;28;20044;-77
2023/02/20 04:32:15;;;;;;;21.52;10.75;;;6.20;99.90;;;;;;5098586;28;20048;-77
2023/02/20 04:34:41;;;;;;;21.77;10.95;;;6.20;99.90;;;;;;5115039;28;20028;-77
2023/02/20 04:37:17;;;;;;;30.25;10.90;;;6.20;99.90;;;;;;5081952;28;20035;-78
2023/02/20 04:39:44;;;;;;;;;;;6.30;99.90;;;;;;5115490;28;20097;-78
2023/02/20 04:42:11;;;;;;;25.63;11.20;;;6.20;99.90;;;;;;5098370;28;19916;-77
2023/02/20 04:44:38;;;;;;;27.55;11.20;;;6.30;99.90;;;;;;5098389;28;20032;-77
2023/02/20 04:47:10;;;;;;;24.90;11.68;;;6.30;99.90;;;;;;5098345;28;20043;-77
2023/02/20 04:49:36;;;;;;;20.17;10.65;;;6.20;99.90;;;;;;5098513;28;20036;-77
2023/02/20 04:52:03;;;;;;;25.20;11.40;;;6.30;99.90;;;;;;5081595;28;20100;-77
2023/02/20 04:54:30;;;;;;;26.65;11.85;;;6.30;99.90;;;;;;5115037;28;20044;-77
2023/02/20 04:56:57;;;;;;;24.08;10.57;;;6.40;99.90;;;;;;5081748;28;20404;-77
2023/02/20 04:59:24;;;;;;;26.23;11.00;;;6.30;99.90;;;;;;5098181;28;20472;-78
2023/02/20 05:01:53;;;;;;;22.98;11.50;;;6.40;99.90;;;;;;5098075;28;20408;-77
2023/02/20 05:04:21;;;;;;;26.35;10.73;;;6.50;99.90;;;;;;5098404;28;20542;-78
2023/02/20 05:06:53;;;;;;;25.30;12.10;;;6.50;99.90;;;;;;5097622;28;20514;-77
2023/02/20 05:09:20;;;;;;;29.63;11.18;;;6.60;99.90;;;;;;5105958;28;20037;-77
2023/02/20 05:11:47;;;;;;;26.73;11.35;;;6.60;99.90;;;;;;5075171;28;20040;-77
2023/02/20 05:14:14;;;;;;;27.13;11.20;;;6.70;99.90;;;;;;5074646;28;20063;-77
2023/02/20 05:16:41;;;;;;;27.55;11.40;;;6.70;99.90;;;;;;5075160;28;20041;-77
2023/02/20 05:19:08;;;;;;;27.45;11.35;;;6.70;99.90;;;;;;5043228;28;20079;-77
2023/02/20 05:24:21;;;;;;;31.67;12.50;;;6.80;99.90;;;;;;5073765;28;20052;-78
2023/02/20 05:26:48;;;;;;;30.42;11.93;;;6.70;99.90;;;;;;5044157;28;20072;-77
2023/02/20 05:29:15;;;;;;;23.88;11.88;;;6.80;99.90;;;;;;5051033;28;20041;-78
2023/02/20 05:31:41;;;;;;;28.70;11.68;;;6.80;99.90;;;;;;5049868;28;20037;-77
2023/02/20 05:34:08;;;;;;;26.10;11.18;;;6.80;99.90;;;;;;5067952;28;20095;-77
2023/02/20 05:36:35;;;;;;;23.58;11.40;;;6.80;99.90;;;;;;5050980;28;20080;-77
2023/02/20 05:39:03;;;;;;;32.42;11.60;;;6.80;99.90;;;;;;5035331;28;20478;-77
2023/02/20 05:41:30;;;;;;;26.95;12.32;;;6.80;99.90;;;;;;5065423;28;20041;-77
2023/02/20 05:43:58;;;;;;;29.50;11.93;;;6.80;99.90;;;;;;5054490;28;20047;-77
2023/02/20 05:46:26;;;;;;;26.92;11.88;;;6.90;99.90;;;;;;5070724;28;20033;-77
2023/02/20 05:48:53;;;;;;;31.10;12.38;;;6.90;99.90;;;;;;5088015;28;20033;-77
2023/02/20 05:51:28;;;;;;;28.80;11.60;;;6.90;99.90;;;;;;5071224;28;20104;-77
2023/02/20 05:53:55;;;;;;;25.80;12.23;;;6.90;99.90;;;;;;5071112;28;20083;-77
2023/02/20 05:56:23;;;;;;;23.25;11.93;;;6.90;99.90;;;;;;5087241;28;20103;-77
2023/02/20 05:58:50;;;;;;;31.55;12.80;;;6.90;99.90;;;;;;5087493;28;20037;-77
2023/02/20 06:01:29;;;;;;;28.00;11.95;;;6.90;99.90;;;;;;5068345;28;20064;-78
2023/02/20 06:03:56;;;;;;;25.98;11.90;;;6.90;99.90;;;;;;5067528;28;20049;-77
2023/02/20 06:06:23;;;;;;;33.13;13.90;;;6.90;99.90;;;;;;5034288;28;20087;-77
2023/02/20 06:08:50;;;;;;;26.63;12.10;;;6.90;99.90;;;;;;5050560;28;20080;-78
2023/02/20 06:11:17;;;;;;;28.73;11.90;;;7.00;99.90;;;;;;5068514;28;20033;-77
2023/02/20 06:13:44;;;;;;;33.22;12.27;;;7.00;99.90;;;;;;5070251;28;20037;-78
2023/02/20 06:16:12;;;;;;;26.85;10.40;;;7.00;99.90;;;;;;5087026;28;20041;-78
2023/02/20 06:18:40;;;;;;;18.55;8.85;;;7.00;99.90;;;;;;5070121;28;20037;-77
2023/02/20 06:21:09;;;;;;;23.73;9.60;;;7.10;99.90;;;;;;5070439;28;20041;-77
2023/02/20 06:23:42;;;;;;;25.13;10.05;;;7.10;99.90;;;;;;5058929;28;20049;-77
2023/02/20 06:26:09;;;;;;;22.55;9.10;;;7.10;99.90;;;;;;5054522;28;20048;-77
2023/02/20 06:28:36;;;;;;;24.83;9.35;;;7.10;99.90;;;;;;5070282;28;20094;-77
2023/02/20 06:31:06;;;;;;;22.65;9.20;;;7.20;99.90;;;;;;5070507;28;20037;-77
2023/02/20 06:33:33;;;;;;;25.25;9.10;;;7.20;99.90;;;;;;5055867;28;20417;-77
2023/02/20 06:35:59;;;;;;;28.67;9.35;;;7.30;99.90;;;;;;5067901;28;20052;-77
2023/02/20 06:38:27;;;;;;;26.08;9.00;;;7.30;99.90;;;;;;5069609;28;20066;-77
2023/02/20 06:40:54;;;;;;;18.65;8.50;;;7.30;99.90;;;;;;5053194;28;20041;-77
2023/02/20 06:43:20;;;;;;;28.00;9.30;;;7.30;99.90;;;;;;5053224;28;20386;-77
2023/02/20 06:45:47;;;;;;;18.17;8.32;;;7.40;99.90;;;;;;5052991;28;20055;-78
2023/02/20 06:48:14;;;;;;;20.83;8.10;;;7.40;99.90;;;;;;5053223;28;20132;-77
2023/02/20 06:50:41;;;;;;;20.50;8.25;;;7.40;99.90;;;;;;5056401;28;20068;-77
2023/02/20 06:53:08;;;;;;;26.80;8.73;;;7.40;99.90;;;;;;5049022;28;20095;-77
2023/02/20 06:55:35;;;;;;;22.65;8.85;;;7.50;99.90;;;;;;5032345;28;20052;-78
2023/02/20 06:58:01;;;;;;;24.17;8.80;;;7.50;99.90;;;;;;5032925;28;20486;-77
2023/02/20 07:00:28;;;;;;;18.80;6.47;;;7.50;99.90;;;;;;5020913;28;20040;-78
2023/02/20 07:02:55;;;;;;;26.05;7.75;;;7.50;99.90;;;;;;5069115;28;20087;-77
2023/02/20 07:05:21;;;;;;;13.13;6.22;;;7.30;99.90;;;;;;5052062;28;20405;-77
2023/02/20 07:07:48;;;;;;;18.70;7.28;;;7.60;99.90;;;;;;5021828;28;20087;-78
2023/02/20 07:10:15;;;;;;;13.57;6.10;;;7.50;99.90;;;;;;5049365;28;20076;-78
2023/02/20 07:12:41;;;;;;;15.52;5.82;;;7.60;99.90;;;;;;5052316;28;20037;-78
2023/02/20 07:15:11;;;;;;;17.17;6.15;;;7.60;99.90;;;;;;5048871;28;20064;-77
2023/02/20 07:17:37;;;;;;;14.48;6.30;;;7.60;99.90;;;;;;5073386;28;20097;-78
2023/02/20 07:20:05;;;;;;;18.33;6.13;;;7.60;99.90;;;;;;5046873;28;20494;-78
2023/02/20 07:22:32;;;;;;;18.08;7.30;;;7.60;99.90;;;;;;5074984;28;20105;-79
2023/02/20 07:24:59;;;;;;;17.45;5.93;;;7.60;99.90;;;;;;5092780;28;20036;-78
2023/02/20 07:27:25;;;;;;;13.55;5.68;;;7.60;99.90;;;;;;5079664;28;20048;-78
2023/02/20 07:29:52;;;;;;;17.45;6.68;;;7.70;99.90;;;;;;5044348;28;20041;-78
2023/02/20 07:32:22;;;;;;;21.67;6.80;;;7.60;99.90;;;;;;5072096;28;20036;-78
2023/02/20 07:34:49;;;;;;;15.18;6.10;;;7.70;99.90;;;;;;5065175;28;20400;-78
2023/02/20 07:37:16;;;;;;;12.65;6.05;;;7.70;99.90;;;;;;5080694;28;20039;-77
2023/02/20 07:39:43;;;;;;;13.05;6.30;;;7.70;99.90;;;;;;5069014;28;20036;-78
2023/02/20 07:42:09;;;;;;;14.20;5.55;;;7.70;99.90;;;;;;5062681;28;20036;-78
2023/02/20 07:44:36;;;;;;;14.18;6.28;;;7.70;99.90;;;;;;5061748;28;20455;-78
2023/02/20 07:47:03;;;;;;;14.57;5.88;;;7.70;99.90;;;;;;5088704;28;20041;-78
2023/02/20 07:49:30;;;;;;;15.80;6.38;;;7.70;99.90;;;;;;5050680;28;20094;-78
2023/02/20 07:51:56;;;;;;;17.58;6.35;;;7.80;99.90;;;;;;5077826;28;20082;-77
2023/02/20 07:54:23;;;;;;;13.90;6.25;;;7.70;99.90;;;;;;5087694;28;20032;-77
2023/02/20 07:56:50;;;;;;;19.23;5.88;;;7.70;99.90;;;;;;5090282;28;20032;-77
2023/02/20 07:59:17;;;;;;;14.10;5.68;;;7.80;99.90;;;;;;5079868;28;20063;-77
2023/02/20 08:01:43;;;;;;;14.30;5.47;;;7.80;99.90;;;;;;5067740;28;20048;-78
2023/02/20 08:04:10;;;;;;;13.43;5.88;;;7.70;99.90;;;;;;5086596;28;20036;-78
2023/02/20 08:06:37;;;;;;;17.05;6.15;;;7.80;99.90;;;;;;5092000;28;20040;-78
2023/02/20 08:09:03;;;;;;;18.48;5.88;;;7.80;99.90;;;;;;5092362;28;20079;-78
2023/02/20 08:11:33;;;;;;;13.55;5.95;;;7.80;99.90;;;;;;5071954;28;20493;-78
2023/02/20 08:14:01;;;;;;;13.93;5.75;;;7.80;99.90;;;;;;5075085;28;20062;-80
2023/02/20 08:16:28;;;;;;;11.02;5.53;;;7.90;99.90;;;;;;5072389;28;20041;-80
2023/02/20 08:18:55;;;;;;;15.43;6.40;;;7.90;99.90;;;;;;5088280;28;20043;-80
2023/02/20 08:21:22;;;;;;;12.35;5.28;;;7.90;99.90;;;;;;5071972;28;20056;-80
2023/02/20 08:23:49;;;;;;;12.25;5.30;;;7.90;99.90;;;;;;5055304;28;20489;-80
2023/02/20 08:26:15;;;;;;;16.17;5.53;;;8.00;99.90;;;;;;5095629;28;20072;-80
2023/02/20 08:28:42;;;;;;;12.77;5.22;;;8.00;99.90;;;;;;5060431;28;20036;-80
2023/02/20 08:31:09;;;;;;;11.98;4.93;;;8.00;99.90;;;;;;5092214;28;20043;-80
2023/02/20 08:33:35;;;;;;;11.70;4.63;;;8.00;99.90;;;;;;5073691;28;20076;-80
2023/02/20 08:36:02;;;;;;;9.68;4.72;;;8.00;99.90;;;;;;5091269;28;20037;-80
2023/02/20 08:38:35;;;;;;;12.13;5.68;;;8.00;99.90;;;;;;5071922;28;20032;-80
2023/02/20 08:41:04;;;;;;;13.35;4.05;;;8.10;99.90;;;;;;5077075;28;20040;-80
2023/02/20 08:43:30;;;;;;;9.80;4.50;;;8.10;99.90;;;;;;5105091;28;20040;-80
2023/02/20 08:45:57;;;;;;;10.10;3.85;;;8.10;99.90;;;;;;5087645;28;20143;-80
2023/02/20 08:48:24;;;;;;;12.77;4.30;;;8.20;99.90;;;;;;5077944;28;20102;-80
2023/02/20 08:50:51;;;;;;;8.85;3.60;;;8.20;99.90;;;;;;5069565;28;20119;-80
2023/02/20 08:53:18;;;;;;;9.40;4.45;;;8.20;99.90;;;;;;5061377;28;20067;-80
2023/02/20 08:55:45;;;;;;;14.48;4.25;;;8.20;99.90;;;;;;5075503;28;20110;-80
2023/02/20 08:58:12;;;;;;;14.02;4.95;;;8.20;99.90;;;;;;5072654;28;20493;-80
2023/02/20 09:00:39;;;;;;;12.63;4.85;;;8.20;99.90;;;;;;5081137;28;20033;-79
2023/02/20 09:03:07;;;;;;;13.18;4.47;;;8.20;99.90;;;;;;5084072;28;20037;-80
2023/02/20 09:05:34;;;;;;;12.05;4.18;;;8.20;99.90;;;;;;5052295;28;20519;-80
2023/02/20 09:08:01;;;;;;;10.50;4.18;;;8.20;99.90;;;;;;5071110;28;20070;-79
2023/02/20 09:10:28;;;;;;;10.82;3.67;;;8.20;99.90;;;;;;5089095;28;20072;-79
2023/02/20 09:12:55;;;;;;;6.95;3.80;;;8.20;99.90;;;;;;5074308;28;20551;-80
2023/02/20 09:15:22;;;;;;;8.75;3.63;;;8.20;99.90;;;;;;5057959;28;20377;-79
2023/02/20 09:17:50;;;;;;;8.90;3.88;;;8.20;99.90;;;;;;5091075;28;20040;-79
2023/02/20 09:20:19;;;;;;;10.93;3.60;;;8.20;99.90;;;;;;5083735;28;20044;-79
2023/02/20 09:22:47;;;;;;;10.10;3.88;;;8.20;99.90;;;;;;5098541;28;20051;-80
2023/02/20 09:25:14;;;;;;;11.93;4.13;;;8.20;99.90;;;;;;5081420;28;20052;-80
2023/02/20 09:27:41;;;;;;;14.25;3.50;;;8.30;99.90;;;;;;5063713;28;20075;-80
2023/02/20 09:30:12;;;;;;;10.32;3.40;;;8.30;99.90;;;;;;5074436;28;20043;-80
2023/02/20 09:32:39;;;;;;;11.27;3.10;;;8.30;99.90;;;;;;5074573;28;20044;-80
2023/02/20 09:35:05;;;;;;;17.85;4.03;;;8.30;99.90;;;;;;5057779;28;20127;-80
2023/02/20 09:37:32;;;;;;;15.93;4.43;;;8.30;99.90;;;;;;5057713;28;20074;-79
2023/02/20 09:39:59;;;;;;;7.70;3.25;;;8.30;99.90;;;;;;5057342;28;20805;-80
2023/02/20 09:42:53;;;;;;;13.20;3.88;;;8.40;99.90;;;;;;5083540;28;20040;-80
2023/02/20 09:45:31;;;;;;;11.80;3.55;;;8.40;99.90;;;;;;5100145;28;20051;-80
2023/02/20 09:47:57;;;;;;;9.95;3.58;;;8.40;99.90;;;;;;5082392;28;20630;-80
2023/02/20 09:50:41;;;;;;;11.55;3.58;;;8.40;99.90;;;;;;5105375;28;20044;-79
2023/02/20 09:53:33;;;;;;;7.03;3.50;;;8.50;99.90;;;;;;5095909;28;20083;-80
2023/02/20 09:56:02;;;;;;;15.05;3.60;;;8.50;99.90;;;;;;5090840;28;20072;-80
2023/02/20 09:58:51;;;;;;;10.27;3.17;;;8.50;99.90;;;;;;5074207;28;20044;-80
2023/02/20 10:01:21;;;;;;;10.77;3.70;;;8.50;99.90;;;;;;5090514;28;20070;-80
2023/02/20 10:04:00;;;;;;;8.10;2.83;;;8.50;99.90;;;;;;5091716;28;20045;-80
2023/02/20 10:06:30;;;;;;;10.27;3.40;;;8.50;99.90;;;;;;5093951;28;20176;-80
2023/02/20 10:08:58;;;;;;;9.98;3.58;;;8.50;99.90;;;;;;5110160;28;20123;-80
2023/02/20 10:11:57;;;;;;;10.20;3.88;;;8.50;99.90;;;;;;5110555;28;20056;-79
2023/02/20 10:14:44;;;;;;;11.38;3.97;;;8.50;99.90;;;;;;5070424;28;20097;-80
2023/02/20 10:17:46;;;;;;;7.03;2.95;;;8.50;99.90;;;;;;5083913;28;20040;-79
2023/02/20 10:20:47;;;;;;;7.82;3.53;;;8.50;99.90;;;;;;5089802;28;20493;-80
2023/02/20 10:23:24;;;;;;;17.00;4.55;;;8.50;99.90;;;;;;5073397;28;20803;-80
2023/02/20 10:25:57;;;;;;;17.33;3.80;;;8.50;99.90;;;;;;5073834;28;20123;-80
2023/02/20 10:28:25;;;;;;;12.75;3.60;;;8.50;99.90;;;;;;5073689;28;20101;-80
2023/02/20 10:31:30;;;;;;;8.80;3.08;;;8.50;99.90;;;;;;5104179;28;20059;-80
2023/02/20 10:34:07;;;;;;;11.88;4.25;;;8.50;99.90;;;;;;5087794;28;20062;-80
2023/02/20 10:36:43;;;;;;;10.02;3.35;;;8.60;99.90;;;;;;5076697;28;20041;-80
2023/02/20 10:39:18;;;;;;;12.73;3.83;;;8.60;99.90;;;;;;5075190;28;20045;-80
2023/02/20 10:41:53;;;;;;;11.57;3.53;;;8.60;99.90;;;;;;5085289;28;20036;-80
2023/02/20 10:44:28;;;;;;;13.75;3.67;;;8.60;99.90;;;;;;5076057;28;20037;-79
2023/02/20 10:47:03;;;;;;;10.68;3.55;;;8.60;99.90;;;;;;5102762;28;20044;-80
2023/02/20 10:49:42;;;;;;;11.00;4.18;;;8.70;99.90;;;;;;5089117;28;20082;-80
2023/02/20 10:52:17;;;;;;;9.98;4.00;;;8.80;99.90;;;;;;5076309;28;20094;-80
2023/02/20 10:54:55;;;;;;;12.25;3.70;;;8.80;99.90;;;;;;5093131;28;20036;-80
2023/02/20 10:57:29;;;;;;;13.80;3.80;;;8.80;99.90;;;;;;5109835;28;20454;-80
2023/02/20 11:00:07;;;;;;;11.00;3.80;;;8.80;99.90;;;;;;5093051;28;20044;-80
2023/02/20 11:02:41;;;;;;;10.77;3.88;;;8.90;99.90;;;;;;5082920;28;20044;-80
2023/02/20 11:05:13;;;;;;;7.73;3.40;;;8.90;99.90;;;;;;5072015;28;20475;-80
2023/02/20 11:07:39;;;;;;;10.23;3.47;;;8.90;99.90;;;;;;5056269;28;20418;-80
2023/02/20 11:10:08;;;;;;;16.20;3.80;;;9.00;99.90;;;;;;5074708;28;20044;-80
2023/02/20 11:12:36;;;;;;;10.45;3.00;;;9.00;99.90;;;;;;5072492;28;20064;-80
2023/02/20 11:15:10;;;;;;;6.63;3.10;;;9.00;99.90;;;;;;5089762;28;20121;-80
2023/02/20 11:17:39;;;;;;;11.02;3.20;;;9.00;99.90;;;;;;5085428;28;20043;-80
2023/02/20 11:20:45;;;;;;;10.43;3.20;;;9.00;99.90;;;;;;5083594;28;20028;-80
2023/02/20 11:23:34;;;;;;;7.18;3.10;;;9.10;99.90;;;;;;5092998;28;20556;-80
2023/02/20 11:26:19;;;;;;;12.15;3.92;;;9.10;99.90;;;;;;5092774;28;20402;-80
2023/02/20 11:28:59;;;;;;;8.88;3.70;;;9.20;99.90;;;;;;5092552;28;20048;-80
2023/02/20 11:31:26;;;;;;;10.07;3.85;;;9.20;99.90;;;;;;5078509;28;20071;-80
2023/02/20 11:33:54;;;;;;;8.52;3.33;;;9.20;99.90;;;;;;5073350;28;20051;-79
2023/02/20 11:36:25;;;;;;;10.00;3.20;;;9.20;99.90;;;;;;5071890;28;20044;-80
2023/02/20 11:38:58;;;;;;;10.27;3.25;;;9.30;99.90;;;;;;5091204;28;20036;-80
2023/02/20 11:41:29;;;;;;;9.95;2.92;;;9.20;99.90;;;;;;5079298;28;20412;-80
2023/02/20 11:44:23;;;;;;;7.95;3.47;;;9.30;99.90;;;;;;5094694;28;20503;-80
2023/02/20 11:47:23;;;;;;;8.93;3.50;;;9.30;99.90;;;;;;5086523;28;20096;-80
2023/02/20 11:50:17;;;;;;;8.45;3.15;;;9.30;99.90;;;;;;5083576;28;20584;-80
2023/02/20 11:53:32;;;;;;;7.38;3.20;;;9.30;99.90;;;;;;5081760;28;20043;-80
2023/02/20 11:56:17;;;;;;;8.32;2.80;;;9.30;99.90;;;;;;5080299;28;20048;-80
2023/02/20 11:58:47;;;;;;;7.82;3.10;;;9.30;99.90;;;;;;5109051;28;20036;-80
2023/02/20 12:01:36;;;;;;;7.97;2.95;;;9.30;99.90;;;;;;5083207;28;20491;-80
2023/02/20 12:04:18;;;;;;;8.85;3.28;;;9.30;99.90;;;;;;5069236;28;20040;-80
2023/02/20 12:06:48;;;;;;;11.05;3.03;;;9.30;99.90;;;;;;5092156;28;20040;-79
2023/02/20 12:09:18;;;;;;;10.35;3.22;;;9.30;99.90;;;;;;5064990;28;20035;-80
2023/02/20 12:11:45;;;;;;;10.02;3.45;;;9.30;99.90;;;;;;5102316;28;20403;-80
2023/02/20 12:14:13;;;;;;;6.63;2.72;;;9.30;99.90;;;;;;5075638;28;20039;-80
2023/02/20 12:16:49;;;;;;;7.90;2.25;;;9.40;99.90;;;;;;5076387;28;20450;-80
2023/02/20 12:19:35;;;;;;;10.00;3.13;;;9.40;99.90;;;;;;5096351;28;20048;-80
2023/02/20 12:22:11;;;;;;;11.90;3.42;;;9.40;99.90;;;;;;5105178;28;20056;-80
2023/02/20 12:25:04;;;;;;;9.43;2.88;;;9.40;99.90;;;;;;5078251;28;20044;-80
2023/02/20 12:27:48;;;;;;;9.68;2.92;;;9.40;99.90;;;;;;5065792;28;20048;-80
2023/02/20 12:30:40;;;;;;;10.10;2.92;;;9.50;99.90;;;;;;5080701;28;20508;-80
2023/02/20 12:33:28;;;;;;;6.78;2.70;;;9.40;99.90;;;;;;5090954;28;20055;-79
2023/02/20 12:36:06;;;;;;;12.70;3.03;;;9.40;99.90;;;;;;5112236;28;20040;-79
2023/02/20 12:38:52;;;;;;;6.78;3.20;;;9.50;99.90;;;;;;5096135;28;20036;-79
2023/02/20 12:41:28;;;;;;;6.47;2.40;;;9.50;99.90;;;;;;5095650;28;20048;-80
2023/02/20 12:44:32;;;;;;;14.55;2.88;;;9.60;99.90;;;;;;5095489;28;20087;-79
2023/02/20 12:47:27;;;;;;;6.35;2.60;;;9.60;99.90;;;;;;5095454;28;20040;-79
2023/02/20 12:50:13;;;;;;;9.55;3.47;;;9.60;99.90;;;;;;5093491;28;20217;-78
2023/02/20 12:53:05;;;;;;;7.82;2.78;;;9.60;99.90;;;;;;5075603;28;20040;-79
2023/02/20 12:55:53;;;;;;;6.80;2.90;;;9.60;99.90;;;;;;5106999;28;20093;-79
2023/02/20 12:58:28;;;;;;;8.77;2.50;;;9.70;99.90;;;;;;5112012;28;20438;-79
2023/02/20 13:01:04;;;;;;;6.45;2.50;;;9.70;99.90;;;;;;5090956;28;20097;-79
2023/02/20 13:03:55;;;;;;;6.82;2.47;;;9.70;99.90;;;;;;5083405;28;20761;-79
2023/02/20 13:06:38;;;;;;;9.85;2.78;;;9.70;99.90;;;;;;5095361;28;20044;-80
2023/02/20 13:09:30;;;;;;;11.38;3.25;;;9.70;99.90;;;;;;5086352;28;20413;-80
2023/02/20 13:12:09;;;;;;;7.10;2.60;;;9.70;99.90;;;;;;5090354;28;20048;-80
2023/02/20 13:14:59;;;;;;;8.10;2.63;;;9.70;99.90;;;;;;5081185;28;20123;-80
2023/02/20 13:17:48;;;;;;;9.55;2.53;;;9.70;99.90;;;;;;5087434;28;20416;-80
2023/02/20 13:20:17;;;;;;;9.32;2.78;;;9.70;99.90;;;;;;5094726;28;20564;-80
2023/02/20 13:23:04;;;;;;;6.97;2.55;;;9.70;99.90;;;;;;5077815;28;20059;-79
2023/02/20 13:25:38;;;;;;;11.70;2.28;;;9.80;99.90;;;;;;5090928;28;20044;-80
2023/02/20 13:28:41;;;;;;;6.75;2.53;;;9.80;99.90;;;;;;5105194;28;20056;-80
2023/02/20 13:31:28;;;;;;;8.18;2.15;;;9.80;99.90;;;;;;5089880;28;20036;-78
2023/02/20 13:34:04;;;;;;;11.93;2.80;;;9.70;99.90;;;;;;5093788;28;20040;-79
2023/02/20 13:36:34;;;;;;;8.75;2.25;;;9.70;99.90;;;;;;5073792;28;20033;-79